createdAt,value
2017-10-05T00:00:59.235Z,991.08
2017-10-05T00:01:59.238Z,991.07
2017-10-05T00:02:59.251Z,991.13
2017-10-05T00:03:58.489Z,990.99
2017-10-05T00:04:59.465Z,991.08
2017-10-05T00:05:58.464Z,991.08
2017-10-05T00:06:58.412Z,991.07
2017-10-05T00:07:59.095Z,991.10
2017-10-05T00:08:59.766Z,991.05
2017-10-05T00:09:59.709Z,991.08
2017-10-05T00:10:59.438Z,991.02
2017-10-05T00:12:00.176Z,990.97
2017-10-05T00:12:59.806Z,990.98
2017-10-05T00:13:59.936Z,990.93
2017-10-05T00:14:59.553Z,990.90
2017-10-05T00:15:59.926Z,991.03
2017-10-05T00:16:59.158Z,990.92
2017-10-05T00:17:59.486Z,990.88
2017-10-05T00:18:59.364Z,990.89
2017-10-05T00:19:58.525Z,990.85
2017-10-05T00:20:59.576Z,990.84
2017-10-05T00:21:58.584Z,990.86
2017-10-05T00:22:58.527Z,990.73
2017-10-05T00:23:58.650Z,990.76
2017-10-05T00:24:58.579Z,990.89
2017-10-05T00:25:58.700Z,990.80
2017-10-05T00:26:58.633Z,990.82
2017-10-05T00:27:58.656Z,990.83
2017-10-05T00:28:58.693Z,990.79
2017-10-05T00:29:59.548Z,990.71
2017-10-05T00:30:59.488Z,990.73
2017-10-05T00:31:59.561Z,990.74
2017-10-05T00:32:59.483Z,990.77
2017-10-05T00:33:59.338Z,990.73
2017-10-05T00:34:59.572Z,990.72
2017-10-05T00:35:59.600Z,990.72
2017-10-05T00:36:59.525Z,990.65
2017-10-05T00:37:58.652Z,990.73
2017-10-05T00:38:59.578Z,990.66
2017-10-05T00:39:58.606Z,990.71
2017-10-05T00:40:58.668Z,990.67
2017-10-05T00:41:58.631Z,990.67
2017-10-05T00:42:58.690Z,990.67
2017-10-05T00:43:58.704Z,990.70
2017-10-05T00:44:59.534Z,990.74
2017-10-05T00:45:59.555Z,990.69
2017-10-05T00:46:59.581Z,990.72
2017-10-05T00:47:59.603Z,990.73
2017-10-05T00:48:59.377Z,990.74
2017-10-05T00:49:59.681Z,990.66
2017-10-05T00:50:59.613Z,990.69
2017-10-05T00:51:59.600Z,990.68
2017-10-05T00:52:59.619Z,990.72
2017-10-05T00:53:59.756Z,990.49
2017-10-05T00:54:58.693Z,990.55
2017-10-05T00:55:58.644Z,990.45
2017-10-05T00:56:58.593Z,990.49
2017-10-05T00:57:58.743Z,990.40
2017-10-05T00:58:58.779Z,990.39
2017-10-05T00:59:58.709Z,990.36
2017-10-05T01:02:31.413Z,990.26
2017-10-05T01:02:32.319Z,990.25
2017-10-05T01:02:58.783Z,990.26
2017-10-05T01:05:47.606Z,990.28
2017-10-05T01:05:48.520Z,990.17
2017-10-05T01:05:58.650Z,990.05
2017-10-05T01:08:31.946Z,990.05
2017-10-05T01:08:32.760Z,990.01
2017-10-05T01:08:58.625Z,990.01
2017-10-05T01:11:47.251Z,989.98
2017-10-05T01:11:48.063Z,989.93
2017-10-05T01:11:58.595Z,989.89
2017-10-05T01:14:36.496Z,989.89
2017-10-05T01:14:37.558Z,989.93
2017-10-05T01:14:58.708Z,989.83
2017-10-05T01:17:47.540Z,989.73
2017-10-05T01:17:48.353Z,989.66
2017-10-05T01:17:59.003Z,989.55
2017-10-05T01:20:33.661Z,989.53
2017-10-05T01:20:34.677Z,989.44
2017-10-05T01:20:58.654Z,989.48
2017-10-05T01:23:48.314Z,989.43
2017-10-05T01:23:49.311Z,989.35
2017-10-05T01:23:58.833Z,989.28
2017-10-05T01:27:07.400Z,989.24
2017-10-05T01:27:08.414Z,989.23
2017-10-05T01:27:09.527Z,989.25
2017-10-05T01:29:48.435Z,989.23
2017-10-05T01:29:49.448Z,989.16
2017-10-05T01:29:58.780Z,989.13
2017-10-05T01:32:36.576Z,989.16
2017-10-05T01:32:37.690Z,989.18
2017-10-05T01:32:58.735Z,989.23
2017-10-05T01:35:38.334Z,989.16
2017-10-05T01:35:39.344Z,989.15
2017-10-05T01:35:58.892Z,989.19
2017-10-05T01:39:07.144Z,989.12
2017-10-05T01:39:07.969Z,989.15
2017-10-05T01:39:08.983Z,989.09
2017-10-05T01:41:41.975Z,989.10
2017-10-05T01:41:42.883Z,989.15
2017-10-05T01:41:58.823Z,989.18
2017-10-05T01:44:31.409Z,989.09
2017-10-05T01:44:32.523Z,989.13
2017-10-05T01:44:58.792Z,989.05
2017-10-05T01:47:48.301Z,989.08
2017-10-05T01:47:49.112Z,989.11
2017-10-05T01:47:58.743Z,989.10
2017-10-05T01:50:34.435Z,989.11
2017-10-05T01:50:35.449Z,989.14
2017-10-05T01:50:58.812Z,989.15
2017-10-05T01:53:47.863Z,989.01
2017-10-05T01:53:48.676Z,988.93
2017-10-05T01:53:58.805Z,988.88
2017-10-05T01:56:32.006Z,988.86
2017-10-05T01:56:32.819Z,988.77
2017-10-05T01:56:58.872Z,988.70
2017-10-05T01:59:48.491Z,988.73
2017-10-05T01:59:49.604Z,988.70
2017-10-05T01:59:58.936Z,988.70
2017-10-05T02:01:00.468Z,988.70
2017-10-05T02:01:59.889Z,988.60
2017-10-05T02:02:58.804Z,988.70
2017-10-05T02:03:58.837Z,988.67
2017-10-05T02:04:58.878Z,988.58
2017-10-05T02:05:58.808Z,988.66
2017-10-05T02:06:58.830Z,988.64
2017-10-05T02:07:59.550Z,988.68
2017-10-05T02:08:59.575Z,988.68
2017-10-05T02:09:59.693Z,988.67
2017-10-05T02:10:59.718Z,988.65
2017-10-05T02:12:00.148Z,988.71
2017-10-05T02:13:00.186Z,988.68
2017-10-05T02:13:59.611Z,988.63
2017-10-05T02:14:59.547Z,988.70
2017-10-05T02:15:59.574Z,988.61
2017-10-05T02:16:59.607Z,988.55
2017-10-05T02:18:00.063Z,988.51
2017-10-05T02:18:59.886Z,988.42
2017-10-05T02:19:58.899Z,988.38
2017-10-05T02:20:59.978Z,988.36
2017-10-05T02:21:58.874Z,988.33
2017-10-05T02:22:59.020Z,988.24
2017-10-05T02:23:58.970Z,988.13
2017-10-05T02:24:58.890Z,988.10
2017-10-05T02:25:59.915Z,988.15
2017-10-05T02:26:59.939Z,988.19
2017-10-05T02:27:59.863Z,988.25
2017-10-05T02:29:00.298Z,988.23
2017-10-05T02:30:00.251Z,988.26
2017-10-05T02:31:00.007Z,988.19
2017-10-05T02:31:59.969Z,988.22
2017-10-05T02:32:59.893Z,988.19
2017-10-05T02:33:59.921Z,988.27
2017-10-05T02:34:59.865Z,988.30
2017-10-05T02:35:59.988Z,988.23
2017-10-05T02:36:59.003Z,988.15
2017-10-05T02:37:59.029Z,988.16
2017-10-05T02:38:59.109Z,988.12
2017-10-05T02:39:59.125Z,988.14
2017-10-05T02:40:59.123Z,988.10
2017-10-05T02:41:59.052Z,988.14
2017-10-05T02:42:59.073Z,988.11
2017-10-05T02:43:59.094Z,987.99
2017-10-05T02:44:59.158Z,988.03
2017-10-05T02:46:00.037Z,987.98
2017-10-05T02:47:00.062Z,988.04
2017-10-05T02:47:59.788Z,987.97
2017-10-05T02:49:00.006Z,987.98
2017-10-05T02:50:00.036Z,987.88
2017-10-05T02:50:59.860Z,987.78
2017-10-05T02:52:00.079Z,987.83
2017-10-05T02:52:59.901Z,987.86
2017-10-05T02:54:00.027Z,987.85
2017-10-05T02:54:59.145Z,987.91
2017-10-05T02:55:59.170Z,987.87
2017-10-05T02:56:59.094Z,987.90
2017-10-05T02:57:59.026Z,987.91
2017-10-05T02:58:59.145Z,987.93
2017-10-05T02:59:59.095Z,987.90
2017-10-05T03:00:59.167Z,987.87
2017-10-05T03:01:59.186Z,987.79
2017-10-05T03:03:00.016Z,987.77
2017-10-05T03:03:59.838Z,987.69
2017-10-05T03:05:00.060Z,987.72
2017-10-05T03:05:59.783Z,987.63
2017-10-05T03:06:59.897Z,987.67
2017-10-05T03:07:59.717Z,987.66
2017-10-05T03:08:59.036Z,987.53
2017-10-05T03:09:59.061Z,987.57
2017-10-05T03:10:59.889Z,987.53
2017-10-05T03:11:59.129Z,987.43
2017-10-05T03:12:59.037Z,987.53
2017-10-05T03:13:59.066Z,987.46
2017-10-05T03:14:59.083Z,987.48
2017-10-05T03:15:59.805Z,987.51
2017-10-05T03:16:59.965Z,987.56
2017-10-05T03:18:00.290Z,987.60
2017-10-05T03:19:00.317Z,987.54
2017-10-05T03:20:01.842Z,987.42
2017-10-05T03:20:59.046Z,987.41
2017-10-05T03:22:00.477Z,987.32
2017-10-05T03:22:59.795Z,987.25
2017-10-05T03:23:59.814Z,987.26
2017-10-05T03:24:59.833Z,987.20
2017-10-05T03:25:59.064Z,987.21
2017-10-05T03:26:59.892Z,987.15
2017-10-05T03:27:59.150Z,987.06
2017-10-05T03:28:59.060Z,987.04
2017-10-05T03:29:59.194Z,987.08
2017-10-05T03:30:59.063Z,987.06
2017-10-05T03:31:59.995Z,987.02
2017-10-05T03:32:59.853Z,987.04
2017-10-05T03:34:00.393Z,986.90
2017-10-05T03:35:00.329Z,987.00
2017-10-05T03:36:01.973Z,987.03
2017-10-05T03:36:59.097Z,987.05
2017-10-05T03:38:00.433Z,987.02
2017-10-05T03:39:00.373Z,986.99
2017-10-05T03:40:00.210Z,986.97
2017-10-05T03:40:59.737Z,986.98
2017-10-05T03:41:59.874Z,986.93
2017-10-05T03:43:00.014Z,986.97
2017-10-05T03:43:59.152Z,986.92
2017-10-05T03:44:59.172Z,986.90
2017-10-05T03:45:59.314Z,986.86
2017-10-05T03:46:59.172Z,986.82
2017-10-05T03:47:59.289Z,986.73
2017-10-05T03:48:59.319Z,986.64
2017-10-05T03:49:59.253Z,986.65
2017-10-05T03:51:10.266Z,986.65
2017-10-05T03:52:44.041Z,986.65
2017-10-05T03:52:44.651Z,986.55
2017-10-05T03:52:59.211Z,986.50
2017-10-05T03:54:00.639Z,986.46
2017-10-05T03:55:00.581Z,986.49
2017-10-05T03:56:00.522Z,986.53
2017-10-05T03:57:00.451Z,986.54
2017-10-05T03:57:59.789Z,986.50
2017-10-05T03:59:00.133Z,986.48
2017-10-05T04:00:00.266Z,986.47
2017-10-05T04:01:00.095Z,986.40
2017-10-05T04:01:59.307Z,986.38
2017-10-05T04:02:59.332Z,986.38
2017-10-05T04:03:59.373Z,986.35
2017-10-05T04:04:59.404Z,986.33
2017-10-05T04:05:59.332Z,986.25
2017-10-05T04:06:59.369Z,986.21
2017-10-05T04:07:59.393Z,986.20
2017-10-05T04:08:59.332Z,986.24
2017-10-05T04:10:00.571Z,986.19
2017-10-05T04:11:00.592Z,986.18
2017-10-05T04:12:00.713Z,986.10
2017-10-05T04:13:00.582Z,986.12
2017-10-05T04:14:00.613Z,986.02
2017-10-05T04:15:00.031Z,986.07
2017-10-05T04:16:00.052Z,986.02
2017-10-05T04:17:00.075Z,985.97
2017-10-05T04:18:00.096Z,985.93
2017-10-05T04:19:00.039Z,985.89
2017-10-05T04:19:59.349Z,985.99
2017-10-05T04:20:59.471Z,986.03
2017-10-05T04:21:59.485Z,985.95
2017-10-05T04:22:59.424Z,985.94
2017-10-05T04:23:59.259Z,985.95
2017-10-05T04:24:59.993Z,985.97
2017-10-05T04:26:00.623Z,985.89
2017-10-05T04:27:00.559Z,985.83
2017-10-05T04:28:00.584Z,985.79
2017-10-05T04:29:00.505Z,985.74
2017-10-05T04:30:00.631Z,985.67
2017-10-05T04:31:00.752Z,985.70
2017-10-05T04:32:00.066Z,985.68
2017-10-05T04:33:00.079Z,985.76
2017-10-05T04:34:00.092Z,985.76
2017-10-05T04:34:59.322Z,985.75
2017-10-05T04:35:59.332Z,985.74
2017-10-05T04:36:59.351Z,985.66
2017-10-05T04:37:59.587Z,985.67
2017-10-05T04:38:59.513Z,985.63
2017-10-05T04:39:59.371Z,985.53
2017-10-05T04:41:00.077Z,985.56
2017-10-05T04:42:00.092Z,985.63
2017-10-05T04:43:00.727Z,985.40
2017-10-05T04:44:00.644Z,985.36
2017-10-05T04:45:00.773Z,985.36
2017-10-05T04:46:00.192Z,985.31
2017-10-05T04:47:00.627Z,985.36
2017-10-05T04:48:00.764Z,985.26
2017-10-05T04:49:00.089Z,985.29
2017-10-05T04:50:00.018Z,985.28
2017-10-05T04:51:00.049Z,985.31
2017-10-05T04:52:00.089Z,985.23
2017-10-05T04:52:59.516Z,985.24
2017-10-05T04:53:59.455Z,985.15
2017-10-05T04:54:59.505Z,985.15
2017-10-05T04:55:59.451Z,985.13
2017-10-05T04:56:59.493Z,985.09
2017-10-05T04:57:59.520Z,985.09
2017-10-05T04:59:00.176Z,985.07
2017-10-05T05:00:00.607Z,985.11
2017-10-05T05:01:00.151Z,985.12
2017-10-05T05:01:59.990Z,984.98
2017-10-05T05:02:59.971Z,985.02
2017-10-05T05:04:00.645Z,984.98
2017-10-05T05:05:00.122Z,985.02
2017-10-05T05:06:00.210Z,984.89
2017-10-05T05:07:00.250Z,984.85
2017-10-05T05:08:00.165Z,984.79
2017-10-05T05:08:59.520Z,984.81
2017-10-05T05:09:59.533Z,984.86
2017-10-05T05:10:59.560Z,984.80
2017-10-05T05:11:59.536Z,984.80
2017-10-05T05:12:59.581Z,984.82
2017-10-05T05:13:59.562Z,984.77
2017-10-05T05:14:59.411Z,984.82
2017-10-05T05:16:05.158Z,984.72
2017-10-05T05:17:00.735Z,984.77
2017-10-05T05:18:00.296Z,984.71
2017-10-05T05:19:00.861Z,984.74
2017-10-05T05:20:00.924Z,984.69
2017-10-05T05:21:00.166Z,984.77
2017-10-05T05:22:00.227Z,984.65
2017-10-05T05:23:00.467Z,984.61
2017-10-05T05:24:00.230Z,984.55
2017-10-05T05:25:00.267Z,984.56
2017-10-05T05:26:00.214Z,984.52
2017-10-05T05:27:00.546Z,984.47
2017-10-05T05:28:00.475Z,984.54
2017-10-05T05:28:59.600Z,984.45
2017-10-05T05:29:59.637Z,984.47
2017-10-05T05:30:59.669Z,984.43
2017-10-05T05:31:59.540Z,984.45
2017-10-05T05:33:00.265Z,984.36
2017-10-05T05:34:00.307Z,984.41
2017-10-05T05:35:06.468Z,984.34
2017-10-05T05:35:59.586Z,984.19
2017-10-05T05:37:00.515Z,984.22
2017-10-05T05:38:00.875Z,984.22
2017-10-05T05:39:00.243Z,984.17
2017-10-05T05:40:00.220Z,984.22
2017-10-05T05:41:00.177Z,984.21
2017-10-05T05:42:00.242Z,984.12
2017-10-05T05:42:59.588Z,984.10
2017-10-05T05:43:59.615Z,984.12
2017-10-05T05:44:59.580Z,984.04
2017-10-05T05:45:59.587Z,984.07
2017-10-05T05:46:59.590Z,983.99
2017-10-05T05:47:59.745Z,984.02
2017-10-05T05:48:59.686Z,983.94
2017-10-05T05:49:59.616Z,983.89
2017-10-05T05:51:00.857Z,983.91
2017-10-05T05:52:00.912Z,983.77
2017-10-05T05:53:00.572Z,983.80
2017-10-05T05:54:00.619Z,983.66
2017-10-05T05:55:00.498Z,983.70
2017-10-05T05:56:00.834Z,983.58
2017-10-05T05:57:00.670Z,983.51
2017-10-05T05:58:00.318Z,983.59
2017-10-05T05:59:00.401Z,983.58
2017-10-05T06:00:00.439Z,983.57
2017-10-05T06:00:59.691Z,983.55
2017-10-05T06:01:59.643Z,983.65
2017-10-05T06:02:59.680Z,983.59
2017-10-05T06:03:59.733Z,983.57
2017-10-05T06:04:59.673Z,983.54
2017-10-05T06:05:59.739Z,983.47
2017-10-05T06:06:59.669Z,983.51
2017-10-05T06:08:00.921Z,983.54
2017-10-05T06:09:00.855Z,983.46
2017-10-05T06:10:00.930Z,983.48
2017-10-05T06:11:00.973Z,983.55
2017-10-05T06:12:00.927Z,983.49
2017-10-05T06:13:01.065Z,983.60
2017-10-05T06:14:00.394Z,983.62
2017-10-05T06:15:00.326Z,983.56
2017-10-05T07:29:23.691Z,982.03
2017-10-05T07:29:59.663Z,982.14
2017-10-05T07:31:00.664Z,982.17
2017-10-05T07:32:01.196Z,982.14
2017-10-05T07:33:01.145Z,982.03
2017-10-05T07:34:01.038Z,982.05
2017-10-05T07:35:01.074Z,981.98
2017-10-05T07:36:01.360Z,981.94
2017-10-05T07:37:01.293Z,981.95
2017-10-05T07:38:01.125Z,981.95
2017-10-05T07:39:00.167Z,981.89
2017-10-05T07:40:01.232Z,981.79
2017-10-05T07:41:00.260Z,981.76
2017-10-05T07:42:00.205Z,981.73
2017-10-05T07:43:00.334Z,981.81
2017-10-05T07:44:00.281Z,981.81
2017-10-05T07:45:00.327Z,981.82
2017-10-05T07:46:00.266Z,981.76
2017-10-05T07:47:00.307Z,981.71
2017-10-05T07:48:00.143Z,981.58
2017-10-05T07:49:01.302Z,981.62
2017-10-05T07:50:01.550Z,981.55
2017-10-05T07:51:01.096Z,981.48
2017-10-05T07:52:01.152Z,981.44
2017-10-05T07:53:01.311Z,981.36
2017-10-05T07:54:01.247Z,981.40
2017-10-05T07:55:01.385Z,981.27
2017-10-05T07:56:01.552Z,981.35
2017-10-05T07:57:00.200Z,981.29
2017-10-05T07:58:00.342Z,981.30
2017-10-05T07:59:00.272Z,981.33
2017-10-05T08:00:00.323Z,981.33
2017-10-05T08:01:00.382Z,981.30
2017-10-05T08:02:00.642Z,981.23
2017-10-05T08:03:00.278Z,981.07
2017-10-05T08:04:01.416Z,981.12
2017-10-05T08:05:01.252Z,981.10
2017-10-05T08:06:01.706Z,981.17
2017-10-05T08:07:01.346Z,981.10
2017-10-05T08:08:01.285Z,981.00
2017-10-05T08:09:01.321Z,981.05
2017-10-05T08:10:01.352Z,981.06
2017-10-05T08:11:01.305Z,981.12
2017-10-05T08:12:00.279Z,980.99
2017-10-05T08:13:00.335Z,981.01
2017-10-05T08:14:00.371Z,981.10
2017-10-05T08:15:00.406Z,981.04
2017-10-05T08:16:00.440Z,981.04
2017-10-05T08:17:00.267Z,981.00
2017-10-05T08:18:00.401Z,980.95
2017-10-05T08:19:00.263Z,980.86
2017-10-05T08:20:01.588Z,980.81
2017-10-05T08:21:01.421Z,980.81
2017-10-05T08:22:01.259Z,980.85
2017-10-05T08:23:01.889Z,980.88
2017-10-05T08:24:01.426Z,980.92
2017-10-05T08:25:01.699Z,980.97
2017-10-05T08:26:01.325Z,980.95
2017-10-05T08:27:01.619Z,980.91
2017-10-05T08:28:01.564Z,980.86
2017-10-05T08:29:00.301Z,980.86
2017-10-05T08:30:00.363Z,980.80
2017-10-05T08:31:00.422Z,980.72
2017-10-05T08:32:00.438Z,980.79
2017-10-05T08:33:00.396Z,980.79
2017-10-05T08:34:01.562Z,980.68
2017-10-05T08:35:00.323Z,980.62
2017-10-05T08:36:00.480Z,980.73
2017-10-05T08:37:00.422Z,980.62
2017-10-05T08:38:00.364Z,980.62
2017-10-05T08:39:01.621Z,980.51
2017-10-05T08:40:01.259Z,980.66
2017-10-05T08:41:01.380Z,980.62
2017-10-05T08:42:01.671Z,980.65
2017-10-05T08:43:01.344Z,980.68
2017-10-05T08:44:01.790Z,980.65
2017-10-05T08:45:01.445Z,980.77
2017-10-05T08:46:01.488Z,980.65
2017-10-05T08:47:00.429Z,980.68
2017-10-05T08:48:00.465Z,980.60
2017-10-05T08:49:00.516Z,980.61
2017-10-05T08:50:00.373Z,980.56
2017-10-05T08:51:00.524Z,980.61
2017-10-05T08:52:00.353Z,980.45
2017-10-05T08:53:00.492Z,980.60
2017-10-05T08:54:00.530Z,980.55
2017-10-05T08:55:00.472Z,980.64
2017-10-05T08:56:01.541Z,980.55
2017-10-05T08:57:01.410Z,980.51
2017-10-05T08:58:01.456Z,980.56
2017-10-05T08:59:01.295Z,980.41
2017-10-05T09:00:01.846Z,980.43
2017-10-05T09:01:01.515Z,980.42
2017-10-05T09:02:01.481Z,980.39
2017-10-05T09:03:01.621Z,980.39
2017-10-05T09:04:00.445Z,980.38
2017-10-05T09:05:01.496Z,980.28
2017-10-05T09:06:00.538Z,980.26
2017-10-05T09:07:00.681Z,980.33
2017-10-05T09:08:00.717Z,980.30
2017-10-05T09:09:00.461Z,980.24
2017-10-05T09:10:00.522Z,980.27
2017-10-05T09:11:00.575Z,980.25
2017-10-05T09:12:00.443Z,980.14
2017-10-05T09:13:01.809Z,980.22
2017-10-05T09:14:01.375Z,980.26
2017-10-05T09:15:01.445Z,980.10
2017-10-05T09:16:01.388Z,980.01
2017-10-05T09:17:01.441Z,980.04
2017-10-05T09:18:01.849Z,980.00
2017-10-05T09:19:01.720Z,980.02
2017-10-05T09:20:01.489Z,979.99
2017-10-05T09:21:01.505Z,980.05
2017-10-05T09:22:00.507Z,979.87
2017-10-05T09:23:00.484Z,980.05
2017-10-05T09:24:00.482Z,980.00
2017-10-05T09:25:00.656Z,980.10
2017-10-05T09:26:00.640Z,980.08
2017-10-05T09:27:00.634Z,979.95
2017-10-05T09:28:00.595Z,980.02
2017-10-05T09:29:01.677Z,979.93
2017-10-05T09:30:01.739Z,980.00
2017-10-05T09:31:01.797Z,979.91
2017-10-05T09:32:01.450Z,979.97
2017-10-05T09:33:01.822Z,979.93
2017-10-05T09:34:01.772Z,979.78
2017-10-05T09:35:01.566Z,979.88
2017-10-05T09:36:01.857Z,979.86
2017-10-05T09:37:01.644Z,979.84
2017-10-05T09:38:00.534Z,979.75
2017-10-05T09:39:00.545Z,979.77
2017-10-05T09:40:00.553Z,979.82
2017-10-05T09:41:00.645Z,979.81
2017-10-05T09:42:00.607Z,979.67
2017-10-05T09:43:00.569Z,979.62
2017-10-05T09:44:00.710Z,979.67
2017-10-05T09:45:00.566Z,979.67
2017-10-05T09:46:00.724Z,979.58
2017-10-05T09:47:00.666Z,979.52
2017-10-05T09:48:02.126Z,979.51
2017-10-05T09:49:01.876Z,979.58
2017-10-05T09:50:01.524Z,979.55
2017-10-05T09:51:01.771Z,979.52
2017-10-05T09:52:01.724Z,979.52
2017-10-05T09:53:01.680Z,979.55
2017-10-05T09:54:01.634Z,979.59
2017-10-05T09:55:01.780Z,979.53
2017-10-05T09:56:01.709Z,979.50
2017-10-05T09:57:01.946Z,979.43
2017-10-05T09:58:00.569Z,979.49
2017-10-05T09:59:00.700Z,979.41
2017-10-05T10:00:00.761Z,979.41
2017-10-05T10:01:00.718Z,979.41
2017-10-05T10:02:00.772Z,979.33
2017-10-05T10:03:00.741Z,979.30
2017-10-05T10:04:00.766Z,979.26
2017-10-05T10:05:01.999Z,979.32
2017-10-05T10:06:01.994Z,979.27
2017-10-05T10:07:01.681Z,979.29
2017-10-05T10:08:01.767Z,979.36
2017-10-05T10:09:01.596Z,979.38
2017-10-05T10:10:01.660Z,979.36
2017-10-05T10:11:01.781Z,979.48
2017-10-05T10:12:01.589Z,979.45
2017-10-05T10:13:00.724Z,979.43
2017-10-05T10:14:01.814Z,979.47
2017-10-05T10:15:00.640Z,979.41
2017-10-05T10:16:00.811Z,979.38
2017-10-05T10:17:00.790Z,979.31
2017-10-05T10:18:00.829Z,979.41
2017-10-05T10:19:00.704Z,979.39
2017-10-05T10:20:00.764Z,979.44
2017-10-05T10:21:01.827Z,979.40
2017-10-05T10:22:01.800Z,979.48
2017-10-05T10:23:01.643Z,979.33
2017-10-05T10:24:01.671Z,979.24
2017-10-05T10:25:01.672Z,979.26
2017-10-05T10:26:01.749Z,979.29
2017-10-05T10:27:01.899Z,979.26
2017-10-05T10:28:01.857Z,979.34
2017-10-05T10:29:02.034Z,979.26
2017-10-05T10:30:01.771Z,979.19
2017-10-05T10:31:00.840Z,979.28
2017-10-05T10:32:00.774Z,979.27
2017-10-05T10:33:00.910Z,979.19
2017-10-05T10:34:00.703Z,979.21
2017-10-05T10:35:00.741Z,979.09
2017-10-05T10:36:00.804Z,979.15
2017-10-05T10:37:00.844Z,979.08
2017-10-05T10:38:00.786Z,979.04
2017-10-05T10:39:02.258Z,979.04
2017-10-05T10:40:01.792Z,979.03
2017-10-05T10:41:01.837Z,979.02
2017-10-05T10:42:01.872Z,978.92
2017-10-05T10:43:02.130Z,978.96
2017-10-05T10:44:01.674Z,978.83
2017-10-05T10:45:01.908Z,978.83
2017-10-05T10:46:00.784Z,978.82
2017-10-05T10:47:01.939Z,978.88
2017-10-05T10:48:00.793Z,978.88
2017-10-05T10:49:00.741Z,978.90
2017-10-05T10:50:00.798Z,978.92
2017-10-05T10:51:00.869Z,978.85
2017-10-05T10:52:00.869Z,978.82
2017-10-05T10:53:00.762Z,978.74
2017-10-05T10:54:00.884Z,978.75
2017-10-05T10:55:00.870Z,978.72
2017-10-05T10:56:03.465Z,978.79
2017-10-05T10:57:00.904Z,978.74
2017-10-05T10:58:02.698Z,978.81
2017-10-05T10:59:02.171Z,978.79
2017-10-05T11:00:02.132Z,978.77
2017-10-05T11:01:02.144Z,978.86
2017-10-05T11:02:01.777Z,978.82
2017-10-05T11:03:01.813Z,978.64
2017-10-05T11:04:00.848Z,978.74
2017-10-05T11:05:00.976Z,978.64
2017-10-05T11:06:02.130Z,978.68
2017-10-05T11:07:00.860Z,978.73
2017-10-05T11:08:00.857Z,978.56
2017-10-05T11:09:00.905Z,978.68
2017-10-05T11:10:01.168Z,978.62
2017-10-05T11:11:01.019Z,978.62
2017-10-05T11:12:00.967Z,978.60
2017-10-05T11:13:00.932Z,978.51
2017-10-05T11:14:02.820Z,978.51
2017-10-05T11:15:01.876Z,978.45
2017-10-05T11:16:01.942Z,978.42
2017-10-05T11:17:01.753Z,978.48
2017-10-05T11:18:01.904Z,978.38
2017-10-05T11:19:00.846Z,978.38
2017-10-05T11:20:01.895Z,978.36
2017-10-05T11:21:00.923Z,978.26
2017-10-05T11:22:00.999Z,978.37
2017-10-05T11:23:01.041Z,978.32
2017-10-05T11:24:00.917Z,978.23
2017-10-05T11:25:00.969Z,978.26
2017-10-05T11:26:00.935Z,978.33
2017-10-05T11:27:01.029Z,978.24
2017-10-05T11:28:00.982Z,978.20
2017-10-05T11:29:01.086Z,978.12
2017-10-05T11:30:00.926Z,978.01
2017-10-05T11:31:02.024Z,978.19
2017-10-05T11:32:01.818Z,978.18
2017-10-05T11:33:01.912Z,978.10
2017-10-05T11:34:01.983Z,978.08
2017-10-05T11:35:02.081Z,977.99
2017-10-05T11:36:01.896Z,977.99
2017-10-05T11:37:02.267Z,977.84
2017-10-05T11:38:01.953Z,977.83
2017-10-05T11:39:00.974Z,978.03
2017-10-05T11:40:00.965Z,977.81
2017-10-05T11:41:01.018Z,977.92
2017-10-05T11:42:01.063Z,977.91
2017-10-05T11:43:02.256Z,977.81
2017-10-05T11:44:01.113Z,977.77
2017-10-05T11:45:01.113Z,977.93
2017-10-05T11:46:00.931Z,977.84
2017-10-05T11:47:02.377Z,977.68
2017-10-05T11:48:02.255Z,977.76
2017-10-05T11:49:01.920Z,977.72
2017-10-05T11:50:02.055Z,977.79
2017-10-05T11:51:02.254Z,977.71
2017-10-05T11:52:02.055Z,977.73
2017-10-05T11:53:02.045Z,977.62
2017-10-05T11:54:02.007Z,977.52
2017-10-05T11:55:01.033Z,977.74
2017-10-05T11:56:02.090Z,977.85
2017-10-05T11:57:01.020Z,977.65
2017-10-05T11:58:01.058Z,977.69
2017-10-05T11:59:00.993Z,977.67
2017-10-05T12:00:01.139Z,977.67
2017-10-05T12:01:01.084Z,977.52
2017-10-05T12:02:01.070Z,977.55
2017-10-05T12:03:01.103Z,977.53
2017-10-05T12:04:01.147Z,977.58
2017-10-05T12:05:02.417Z,977.71
2017-10-05T12:06:01.949Z,977.62
2017-10-05T12:07:02.404Z,977.65
2017-10-05T12:08:02.139Z,977.65
2017-10-05T12:09:02.063Z,977.43
2017-10-05T12:10:02.029Z,977.45
2017-10-05T12:11:02.172Z,977.40
2017-10-05T12:12:01.107Z,977.40
2017-10-05T12:13:02.338Z,977.38
2017-10-05T12:14:02.288Z,977.35
2017-10-05T12:15:01.218Z,977.39
2017-10-05T12:16:01.054Z,977.25
2017-10-05T12:17:01.192Z,977.41
2017-10-05T12:18:01.032Z,977.36
2017-10-05T12:19:01.135Z,977.38
2017-10-05T12:20:01.084Z,977.31
2017-10-05T12:21:02.518Z,977.34
2017-10-05T12:22:02.154Z,977.42
2017-10-05T12:23:02.096Z,977.22
2017-10-05T12:24:02.229Z,977.39
2017-10-05T12:25:02.187Z,977.24
2017-10-05T12:26:02.419Z,977.24
2017-10-05T12:27:01.993Z,977.15
2017-10-05T12:28:02.033Z,977.03
2017-10-05T12:29:02.275Z,977.27
2017-10-05T12:30:01.204Z,977.18
2017-10-05T12:31:01.279Z,977.31
2017-10-05T12:32:01.224Z,977.27
2017-10-05T12:33:01.180Z,977.37
2017-10-05T12:34:01.223Z,977.22
2017-10-05T12:35:01.086Z,977.20
2017-10-05T12:36:01.154Z,977.45
2017-10-05T12:37:01.307Z,977.53
2017-10-05T12:38:01.236Z,977.47
2017-10-05T12:39:01.266Z,977.32
2017-10-05T12:40:03.222Z,977.50
2017-10-05T12:41:02.280Z,977.44
2017-10-05T12:42:02.417Z,977.52
2017-10-05T12:43:02.254Z,977.61
2017-10-05T12:44:02.240Z,977.63
2017-10-05T12:45:02.293Z,977.75
2017-10-05T12:46:01.123Z,977.83
2017-10-05T12:47:01.162Z,977.75
2017-10-05T12:48:01.205Z,977.77
2017-10-05T12:49:01.259Z,977.86
2017-10-05T12:50:01.156Z,977.76
2017-10-05T12:51:01.193Z,977.82
2017-10-05T12:52:01.339Z,977.92
2017-10-05T12:53:01.277Z,978.07
2017-10-05T12:54:01.213Z,978.04
2017-10-05T12:55:02.258Z,977.97
2017-10-05T12:56:02.558Z,978.09
2017-10-05T12:57:02.503Z,978.08
2017-10-05T12:58:02.161Z,978.18
2017-10-05T12:59:02.218Z,978.37
2017-10-05T13:00:02.463Z,978.22
2017-10-05T13:01:02.711Z,978.30
2017-10-05T13:02:02.246Z,977.87
2017-10-05T13:03:02.187Z,978.30
2017-10-05T13:04:01.318Z,978.34
2017-10-05T13:05:01.375Z,978.13
2017-10-05T13:06:01.240Z,978.33
2017-10-05T13:07:01.288Z,978.18
2017-10-05T13:08:01.327Z,978.13
2017-10-05T13:09:01.216Z,978.27
2017-10-05T13:10:02.273Z,978.26
2017-10-05T13:11:02.307Z,978.16
2017-10-05T13:12:02.123Z,978.34
2017-10-05T13:13:02.384Z,978.07
2017-10-05T13:14:02.435Z,978.10
2017-10-05T13:15:02.385Z,978.26
2017-10-05T13:16:02.427Z,978.05
2017-10-05T13:17:02.461Z,978.21
2017-10-05T13:18:02.408Z,978.13
2017-10-05T13:19:02.538Z,978.15
2017-10-05T13:20:02.278Z,978.21
2017-10-05T13:21:01.305Z,978.37
2017-10-05T13:22:01.361Z,978.30
2017-10-05T13:23:01.291Z,978.21
2017-10-05T13:24:01.422Z,978.38
2017-10-05T13:25:01.449Z,978.42
2017-10-05T13:26:01.280Z,978.35
2017-10-05T13:27:01.518Z,978.47
2017-10-05T13:28:01.449Z,978.46
2017-10-05T13:29:01.475Z,978.44
2017-10-05T13:30:01.322Z,978.55
2017-10-05T13:31:02.469Z,978.45
2017-10-05T13:32:02.503Z,978.57
2017-10-05T13:33:02.732Z,978.55
2017-10-05T13:34:02.357Z,978.60
2017-10-05T13:35:02.699Z,978.62
2017-10-05T13:36:02.331Z,978.46
2017-10-05T13:37:02.269Z,978.63
2017-10-05T13:38:02.298Z,978.54
2017-10-05T13:39:01.419Z,978.68
2017-10-05T13:40:01.488Z,978.64
2017-10-05T13:41:01.434Z,978.63